Corona de Tucson, Arizona
Current Conditions -  °F | °C
As of 10:53 PM on Wednesday 28 Jan 2015 (Local Time) from KTUS Reporting Station
Clear Clear  
Wind Chill: 60°   Ceiling: Unl
Heat Index: 60°   Visibility: 10mi
Dew Point: 50°   Wind: 6mph
Humidity: 69%   Direction: 240°WSW
Pressure: 30.15"   Gusts: NA
Location:  31.9353°N, 110.697°W
Report Text: KTUS 290553Z 24005KT 10SM CLR 16/10 A3015 RMK AO2 SLP184 T01560100 10233 20156 53009
Loading
Personal Weather Stations






























Interactive Weather Map New forecast layout! Learn more

10-Day Weather Forecast

Advertisements
Track Severe Weather on mobile